Time;durP1;ratioP1;P1;durP2;ratioP2;P2;SDS_P1;SDS_P2;PMS_P1;PMS_P2;Temp;Humidity;BMP_temperature;BMP_pressure;BME280_temperature;BME280_humidity;BME280_pressure;Samples;Min_cycle;Max_cycle;Signal;HPM_P1;HPM_P2
2022/07/02 07:59:10;;;;;;;3.78;1.50;;;;;;;18.39;53.56;102058.25;5271253;28;20403;-65
2022/07/02 08:01:41;;;;;;;3.42;2.25;;;;;;;18.60;54.83;102059.47;5257637;28;20029;-65
2022/07/02 08:04:13;;;;;;;3.67;1.23;;;;;;;18.68;52.99;102064.34;5255232;28;20061;-65
2022/07/02 08:06:44;;;;;;;4.30;1.20;;;;;;;18.81;53.88;102064.66;5258173;28;20337;-63
2022/07/02 08:09:16;;;;;;;2.05;1.00;;;;;;;19.13;55.35;102057.19;5256720;28;20086;-66
2022/07/02 08:11:47;;;;;;;3.45;1.50;;;;;;;18.93;51.13;102058.50;5258585;28;20033;-64
2022/07/02 08:14:18;;;;;;;2.22;1.35;;;;;;;19.05;52.65;102059.59;5258184;28;20037;-65
2022/07/02 08:16:50;;;;;;;9.82;8.82;;;;;;;19.05;54.51;102053.97;5257610;28;20009;-66
2022/07/02 08:19:21;;;;;;;3.25;1.40;;;;;;;19.30;54.26;102046.88;5258288;28;20100;-65
2022/07/02 08:21:55;;;;;;;2.45;1.30;;;;;;;19.55;52.94;102044.53;5257452;28;20025;-65
2022/07/02 08:24:26;;;;;;;3.03;1.63;;;;;;;19.44;52.09;102049.63;5261210;28;20033;-64
2022/07/02 08:27:00;;;;;;;4.68;1.55;;;;;;;19.63;53.04;102048.56;5257185;28;20044;-67
2022/07/02 08:29:31;;;;;;;2.58;1.40;;;;;;;19.67;50.67;102052.44;5257903;28;20033;-65
2022/07/02 08:32:04;;;;;;;4.20;1.55;;;;;;;19.68;50.61;102042.81;5257889;28;20025;-67
2022/07/02 08:34:36;;;;;;;2.38;1.35;;;;;;;19.46;50.08;102043.69;5256736;28;20500;-65
2022/07/02 08:37:07;;;;;;;3.60;1.15;;;;;;;19.43;50.59;102041.47;5256804;28;20053;-66
2022/07/02 08:39:38;;;;;;;2.67;1.75;;;;;;;19.72;52.42;102046.66;5258427;28;20029;-66
2022/07/02 08:42:10;;;;;;;3.55;1.20;;;;;;;19.90;52.37;102047.59;5251360;28;20022;-66
2022/07/02 08:44:42;;;;;;;4.70;1.48;;;;;;;19.70;51.19;102040.53;5253679;28;20492;-66
2022/07/02 08:47:14;;;;;;;2.90;1.42;;;;;;;19.91;51.70;102041.63;5255869;28;20029;-65
2022/07/02 08:49:50;;;;;;;3.83;1.75;;;;;;;19.89;51.55;102035.50;5256086;28;20029;-65
2022/07/02 08:52:24;;;;;;;4.70;1.20;;;;;;;19.83;51.31;102033.97;5256250;28;20354;-67
2022/07/02 08:54:56;;;;;;;4.88;1.50;;;;;;;20.01;52.09;102039.69;5255921;28;20094;-64
2022/07/02 08:57:31;;;;;;;2.03;1.65;;;;;;;19.82;50.81;102039.94;5257151;28;20029;-64
2022/07/02 09:00:02;;;;;;;2.03;1.20;;;;;;;19.90;51.57;102033.50;5256002;28;20372;-64
2022/07/02 09:02:35;;;;;;;4.43;1.50;;;;;;;20.22;52.70;102029.47;5256103;28;20027;-64
2022/07/02 09:05:10;;;;;;;2.67;1.15;;;;;;;20.29;50.10;102041.09;5257208;28;20031;-64
2022/07/02 09:07:42;;;;;;;3.50;1.20;;;;;;;20.18;49.82;102040.56;5252267;28;20124;-64
2022/07/02 09:10:17;;;;;;;3.83;1.40;;;;;;;20.26;50.38;102024.84;5238105;28;20022;-63
2022/07/02 09:12:50;;;;;;;2.95;1.63;;;;;;;20.34;50.64;102026.84;5243399;28;20045;-63
2022/07/02 09:15:22;;;;;;;9.32;1.55;;;;;;;20.50;51.82;102021.56;5243551;28;20491;-63
2022/07/02 09:17:54;;;;;;;5.38;2.00;;;;;;;20.35;50.79;102022.03;5237133;28;20037;-63
2022/07/02 09:20:25;;;;;;;3.33;1.67;;;;;;;20.55;51.88;102009.34;5237510;28;20029;-63
2022/07/02 09:22:56;;;;;;;3.90;1.65;;;;;;;20.43;49.63;102015.63;5243860;28;20029;-64
2022/07/02 09:25:30;;;;;;;5.00;1.83;;;;;;;20.51;50.63;102002.72;5240559;28;20036;-64
2022/07/02 09:28:04;;;;;;;5.72;1.48;;;;;;;20.60;50.47;102003.56;5239419;28;20208;-65
2022/07/02 09:30:36;;;;;;;2.58;1.02;;;;;;;20.67;49.91;102003.09;5241369;28;20437;-65
2022/07/02 09:33:35;;;;;;;2.28;1.42;;;;;;;20.73;49.21;102002.56;5237119;28;20025;-65
2022/07/02 09:36:12;;;;;;;3.67;1.20;;;;;;;20.79;49.58;101998.44;5223110;28;20038;-65
2022/07/02 09:38:46;;;;;;;6.32;1.63;;;;;;;20.83;49.54;101999.41;5221850;28;20036;-65
2022/07/02 09:41:20;;;;;;;3.53;1.30;;;;;;;20.89;49.24;101993.59;5233822;28;20025;-65
2022/07/02 09:44:02;;;;;;;2.92;1.63;;;;;;;20.76;48.74;101987.84;5242960;28;20025;-64
2022/07/02 09:46:33;;;;;;;3.90;1.48;;;;;;;20.77;48.09;101983.03;5238613;28;20026;-66
2022/07/02 09:49:07;;;;;;;3.13;1.50;;;;;;;20.72;48.53;101981.19;5223871;28;20026;-65
2022/07/02 09:51:50;;;;;;;2.20;1.10;;;;;;;20.85;49.08;101985.81;5242505;28;20082;-66
2022/07/02 09:54:23;;;;;;;4.10;1.50;;;;;;;20.86;48.57;101975.38;5242401;28;20037;-66
2022/07/02 09:56:56;;;;;;;5.15;1.70;;;;;;;20.92;48.94;101978.88;5242909;28;20104;-64
2022/07/02 09:59:35;;;;;;;6.07;1.70;;;;;;;20.92;48.17;101979.69;5241790;28;20044;-64
2022/07/02 10:02:24;;;;;;;3.17;1.35;;;;;;;21.04;49.08;101970.56;5243203;28;20056;-64
2022/07/02 10:04:56;;;;;;;4.97;1.90;;;;;;;21.03;49.07;101966.91;5238494;28;20105;-66
2022/07/02 10:07:27;;;;;;;3.22;1.40;;;;;;;21.04;47.22;101970.56;5240950;28;20109;-67
2022/07/02 10:10:03;;;;;;;4.93;1.58;;;;;;;21.26;47.61;101972.34;5242665;28;20056;-64
2022/07/02 10:12:35;;;;;;;2.53;1.40;;;;;;;21.43;46.91;101972.31;5242505;28;20052;-65
2022/07/02 10:15:07;;;;;;;3.47;1.52;;;;;;;21.75;47.86;101960.75;5240358;28;20057;-66
2022/07/02 10:17:39;;;;;;;2.13;1.40;;;;;;;21.61;46.62;101967.44;5253077;28;20115;-67
2022/07/02 10:20:11;;;;;;;2.28;1.10;;;;;;;21.72;46.51;101962.25;5240210;28;20548;-66
2022/07/02 10:22:43;;;;;;;2.78;1.45;;;;;;;21.33;46.52;101961.38;5239988;28;20017;-66
2022/07/02 10:25:16;;;;;;;3.22;1.40;;;;;;;21.33;47.44;101960.56;5238795;28;20025;-65
2022/07/02 10:27:48;;;;;;;3.03;2.05;;;;;;;21.30;47.51;101949.94;5225658;28;20491;-66
2022/07/02 10:30:20;;;;;;;2.40;1.15;;;;;;;21.27;46.71;101955.09;5240356;28;20056;-65
2022/07/02 10:32:54;;;;;;;3.45;1.40;;;;;;;21.46;46.93;101954.72;5232967;28;20538;-65
2022/07/02 10:35:27;;;;;;;3.37;1.10;;;;;;;21.42;46.67;101950.06;5226034;28;20116;-67
2022/07/02 10:38:00;;;;;;;2.97;1.58;;;;;;;21.38;45.99;101951.91;5229480;28;20044;-67
2022/07/02 10:40:32;;;;;;;2.75;1.00;;;;;;;21.42;45.25;101945.28;5234896;28;20033;-69
2022/07/02 10:43:13;;;;;;;1.92;1.10;;;;;;;21.61;45.67;101953.34;5227564;28;20062;-69
2022/07/02 10:45:45;;;;;;;3.03;1.75;;;;;;;21.66;44.45;101958.78;5225589;28;20025;-68
2022/07/02 10:48:17;;;;;;;3.53;1.13;;;;;;;21.55;43.23;101954.69;5230634;28;20025;-67
2022/07/02 10:50:48;;;;;;;3.20;1.40;;;;;;;21.63;43.62;101950.19;5250147;28;20435;-68
2022/07/02 10:53:22;;;;;;;3.45;1.65;;;;;;;21.60;43.97;101940.41;5260328;28;20045;-67
2022/07/02 10:55:53;;;;;;;5.40;1.30;;;;;;;21.72;44.99;101945.31;5236045;28;20041;-69
2022/07/02 10:58:29;;;;;;;2.33;1.00;;;;;;;21.77;44.85;101935.84;5237235;28;20050;-68
2022/07/02 11:01:14;;;;;;;1.05;0.90;;;;;;;21.96;43.34;101933.41;5228005;28;20329;-68
2022/07/02 11:03:58;;;;;;;4.13;1.17;;;;;;;21.93;41.68;101932.09;5236893;28;20029;-68
2022/07/02 11:06:30;;;;;;;4.40;1.48;;;;;;;21.99;42.79;101937.56;5233646;28;20056;-68
2022/07/02 11:09:03;;;;;;;3.72;1.10;;;;;;;22.07;43.39;101936.66;5240752;28;20028;-70
2022/07/02 11:11:39;;;;;;;3.47;1.17;;;;;;;22.09;43.04;101932.31;5240683;28;20032;-68
2022/07/02 11:14:11;;;;;;;1.48;0.93;;;;;;;22.23;41.58;101931.28;5237691;28;20104;-68
2022/07/02 11:16:48;;;;;;;3.70;1.50;;;;;;;22.42;41.80;101931.63;5228073;28;20421;-66
2022/07/02 11:19:26;;;;;;;1.88;1.27;;;;;;;22.44;40.99;101936.94;5251474;28;20025;-68
2022/07/02 11:22:02;;;;;;;3.40;1.13;;;;;;;22.30;40.87;101929.56;5245501;28;20036;-65
2022/07/02 11:24:34;;;;;;;1.77;0.80;;;;;;;22.25;41.07;101915.63;5242433;28;20035;-67
2022/07/02 11:27:06;;;;;;;2.92;1.23;;;;;;;22.53;40.65;101924.38;5240480;28;20033;-68
2022/07/02 11:29:37;;;;;;;1.63;0.80;;;;;;;22.56;40.10;101918.03;5240679;28;20026;-67
2022/07/02 11:32:08;;;;;;;2.70;1.33;;;;;;;22.86;39.41;101919.94;5239223;28;20048;-68
2022/07/02 11:34:40;;;;;;;3.63;1.08;;;;;;;22.88;38.95;101912.75;5257999;28;20474;-63
2022/07/02 11:37:21;;;;;;;1.13;0.70;;;;;;;22.93;38.99;101903.19;5261251;28;20040;-65
2022/07/02 11:39:52;;;;;;;2.78;0.80;;;;;;;22.99;38.51;101914.00;5255523;28;20395;-66
2022/07/02 11:42:35;;;;;;;1.30;1.00;;;;;;;23.16;38.10;101909.31;5232366;28;20053;-67
2022/07/02 11:45:07;;;;;;;2.85;1.00;;;;;;;23.02;39.30;101906.81;5255399;28;20037;-69
2022/07/02 11:47:50;;;;;;;4.85;1.42;;;;;;;23.13;38.83;101904.34;5255474;28;20014;-67
2022/07/02 11:50:29;;;;;;;42.15;37.95;;;;;;;23.33;38.81;101900.63;5238526;28;20048;-68
2022/07/02 11:53:00;;;;;;;1.90;1.05;;;;;;;23.22;39.75;101899.44;5260770;28;20017;-69
2022/07/02 11:55:32;;;;;;;1.92;0.95;;;;;;;23.33;39.96;101894.97;5235959;28;20100;-68
2022/07/02 11:58:03;;;;;;;6.85;3.58;;;;;;;23.27;39.40;101895.56;5242650;28;20117;-69
2022/07/02 12:00:35;;;;;;;3.53;1.30;;;;;;;23.48;40.17;101890.63;5237650;28;20163;-70
2022/07/02 12:03:11;;;;;;;2.35;0.98;;;;;;;23.53;39.83;101881.06;5240688;28;20033;-69
2022/07/02 12:05:50;;;;;;;4.00;2.00;;;;;;;23.70;39.27;101888.47;5240756;28;20032;-68
2022/07/02 12:08:21;;;;;;;2.90;1.00;;;;;;;23.73;39.82;101888.66;5238360;28;20044;-69
2022/07/02 12:10:52;;;;;;;3.70;1.17;;;;;;;23.65;39.45;101887.56;5238810;28;20025;-70
2022/07/02 12:13:24;;;;;;;3.03;1.20;;;;;;;23.58;39.59;101889.34;5259741;28;20025;-68
2022/07/02 12:15:55;;;;;;;4.50;1.35;;;;;;;23.61;39.72;101882.94;5257885;28;20117;-69
2022/07/02 12:18:26;;;;;;;3.60;1.30;;;;;;;23.67;40.44;101881.53;5244860;28;20033;-69
2022/07/02 12:21:11;;;;;;;2.65;2.13;;;;;;;23.65;40.30;101883.91;5239763;28;20048;-68
2022/07/02 12:23:50;;;;;;;2.75;1.42;;;;;;;23.65;40.32;101870.56;5239235;28;20037;-68
2022/07/02 12:26:23;;;;;;;3.08;1.30;;;;;;;23.61;40.53;101868.81;5242985;28;20091;-65
2022/07/02 12:31:54;;;;;;;6.35;3.47;;;;;;;23.40;39.69;101866.91;5248744;28;20459;-67
2022/07/02 12:34:36;;;;;;;2.90;1.23;;;;;;;23.52;41.19;101859.59;5239306;28;20040;-68
2022/07/02 12:37:21;;;;;;;3.28;1.30;;;;;;;23.36;40.33;101848.97;5240202;28;20021;-68
2022/07/02 12:40:00;;;;;;;3.67;1.20;;;;;;;23.38;40.59;101849.44;5240329;28;20219;-68
2022/07/02 12:42:33;;;;;;;2.42;1.25;;;;;;;23.59;41.71;101840.00;5219490;28;20333;-68
2022/07/02 12:45:06;;;;;;;2.97;1.23;;;;;;;23.78;40.70;101842.28;5222561;28;20025;-67
2022/07/02 12:47:39;;;;;;;2.78;1.00;;;;;;;23.76;40.28;101839.78;5225325;28;20054;-68
2022/07/02 12:50:23;;;;;;;4.40;2.72;;;;;;;23.77;40.22;101841.44;5243100;28;20087;-67
2022/07/02 12:52:55;;;;;;;2.25;1.00;;;;;;;23.75;40.66;101849.47;5243843;28;20033;-65
2022/07/02 12:55:32;;;;;;;2.15;1.00;;;;;;;23.57;39.96;101836.69;5243075;28;20056;-67
2022/07/02 12:58:07;;;;;;;3.53;1.30;;;;;;;23.58;40.62;101838.38;5241538;28;20049;-67
2022/07/02 13:00:41;;;;;;;1.80;1.00;;;;;;;23.70;39.09;101840.34;5243494;28;20152;-66
2022/07/02 13:03:17;;;;;;;1.63;1.20;;;;;;;23.87;39.77;101829.59;5237317;28;20300;-66
2022/07/02 13:05:51;;;;;;;2.63;1.50;;;;;;;23.87;39.29;101835.28;5235064;28;20029;-65
2022/07/02 13:08:24;;;;;;;3.38;1.50;;;;;;;23.84;37.87;101821.00;5243807;28;20116;-66
2022/07/02 13:10:59;;;;;;;4.63;2.97;;;;;;;23.86;38.29;101818.66;5242632;28;20036;-67
2022/07/02 13:13:31;;;;;;;2.78;1.13;;;;;;;23.95;39.50;101824.16;5243812;28;20143;-66
2022/07/02 13:16:02;;;;;;;3.20;1.15;;;;;;;23.98;38.36;101817.78;5228783;28;20033;-68
2022/07/02 13:18:33;;;;;;;2.42;1.00;;;;;;;23.99;38.19;101808.94;5239174;28;20020;-68
2022/07/02 13:21:05;;;;;;;3.17;0.90;;;;;;;24.22;37.27;101809.22;5264085;28;20082;-68
2022/07/02 13:23:36;;;;;;;2.42;1.02;;;;;;;24.22;38.61;101803.56;5260550;28;20357;-68
2022/07/02 13:26:07;;;;;;;2.20;0.90;;;;;;;24.35;37.94;101797.84;5263516;28;20032;-68
2022/07/02 13:28:38;;;;;;;4.55;1.08;;;;;;;24.29;38.02;101809.44;5263766;28;20194;-68
2022/07/02 13:31:10;;;;;;;1.45;1.20;;;;;;;24.23;38.20;101807.19;5260920;28;20024;-68
2022/07/02 13:33:41;;;;;;;2.25;1.20;;;;;;;24.08;37.75;101801.13;5233800;28;20108;-67
2022/07/02 13:36:12;;;;;;;3.08;1.40;;;;;;;24.32;38.14;101793.72;5243106;28;20021;-69
2022/07/02 13:38:44;;;;;;;2.38;0.90;;;;;;;24.64;37.30;101793.81;5242072;28;20038;-68
2022/07/02 13:41:15;;;;;;;3.28;0.80;;;;;;;24.76;36.80;101784.41;5242919;28;20168;-68
2022/07/02 13:43:46;;;;;;;2.45;1.13;;;;;;;24.84;36.70;101800.44;5243081;28;20049;-68
2022/07/02 13:46:18;;;;;;;0.85;0.70;;;;;;;24.92;36.49;101791.72;5242106;28;20480;-67
2022/07/02 13:48:49;;;;;;;1.67;0.77;;;;;;;24.88;36.64;101798.53;5236640;28;20390;-67
2022/07/02 13:51:20;;;;;;;2.72;0.90;;;;;;;24.69;36.27;101791.53;5222342;28;20022;-67
2022/07/02 13:53:52;;;;;;;3.20;1.90;;;;;;;24.73;35.82;101783.94;5228962;28;20025;-68
2022/07/02 13:56:23;;;;;;;4.80;1.10;;;;;;;24.80;36.50;101783.31;5242336;28;20053;-69
2022/07/02 13:58:55;;;;;;;3.58;1.05;;;;;;;25.07;35.66;101787.25;5241741;28;20053;-69
2022/07/02 14:01:26;;;;;;;2.33;0.82;;;;;;;25.06;35.64;101782.78;5242777;28;20036;-69
2022/07/02 14:03:57;;;;;;;5.15;1.08;;;;;;;24.97;35.58;101779.28;5242388;28;20025;-69
2022/07/02 14:06:29;;;;;;;1.48;0.70;;;;;;;24.63;35.50;101778.81;5240989;28;20022;-71
2022/07/02 14:09:01;;;;;;;2.55;0.90;;;;;;;24.60;36.23;101771.03;5242175;28;20021;-70
2022/07/02 14:11:35;;;;;;;1.67;0.70;;;;;;;24.65;35.72;101767.94;5242358;28;20049;-72
2022/07/02 14:14:07;;;;;;;1.83;1.50;;;;;;;25.12;36.60;101758.59;5237048;28;20045;-71
2022/07/02 14:16:39;;;;;;;3.58;0.70;;;;;;;25.07;35.67;101770.22;5247926;28;20511;-72
2022/07/02 14:19:10;;;;;;;1.48;1.10;;;;;;;25.22;35.75;101773.47;5235217;28;20073;-73
2022/07/02 14:21:44;;;;;;;3.28;1.13;;;;;;;25.50;35.14;101768.47;5261227;28;20023;-72
2022/07/02 14:24:15;;;;;;;2.13;0.70;;;;;;;25.65;34.36;101771.63;5242353;28;20540;-72
2022/07/02 14:26:46;;;;;;;2.33;0.80;;;;;;;25.79;34.16;101757.72;5261645;28;20100;-72
2022/07/02 14:29:18;;;;;;;3.35;1.00;;;;;;;25.84;34.24;101760.28;5254992;28;20029;-71
2022/07/02 14:31:50;;;;;;;5.78;1.25;;;;;;;26.03;33.83;101762.34;5236903;28;20039;-70
2022/07/02 14:34:21;;;;;;;4.40;2.30;;;;;;;26.08;34.62;101761.22;5252828;28;20021;-69
2022/07/02 14:36:53;;;;;;;3.50;0.95;;;;;;;26.08;33.48;101761.22;5243140;28;20401;-71
2022/07/02 14:39:24;;;;;;;1.83;0.70;;;;;;;25.98;33.88;101756.97;5255712;28;20090;-71
2022/07/02 14:41:56;;;;;;;1.90;1.52;;;;;;;26.05;33.50;101756.28;5241637;28;20033;-71
2022/07/02 14:44:27;;;;;;;4.43;1.40;;;;;;;26.23;33.63;101748.97;5241527;28;20029;-70
2022/07/02 14:47:02;;;;;;;3.22;1.52;;;;;;;26.32;33.33;101743.03;5241579;28;20022;-69
2022/07/02 14:49:33;;;;;;;2.78;1.40;;;;;;;26.38;33.98;101755.72;5241289;28;20030;-72
2022/07/02 14:52:05;;;;;;;3.20;0.90;;;;;;;26.31;33.46;101749.94;5241533;28;20029;-69
2022/07/02 14:54:36;;;;;;;2.63;0.70;;;;;;;26.41;33.37;101755.81;5234371;28;20092;-71
2022/07/02 14:57:07;;;;;;;2.63;0.88;;;;;;;26.33;33.54;101748.34;5235565;28;20121;-70
2022/07/02 14:59:39;;;;;;;1.10;0.70;;;;;;;26.65;33.04;101743.28;5231555;28;20030;-70
2022/07/02 15:02:12;;;;;;;6.00;5.40;;;;;;;26.72;33.50;101745.44;5251189;28;20774;-73
2022/07/02 15:04:44;;;;;;;6.32;1.77;;;;;;;26.72;33.39;101738.94;5247671;28;20021;-71
2022/07/02 15:07:15;;;;;;;1.55;1.23;;;;;;;26.62;33.77;101737.53;5261408;28;20090;-70
2022/07/02 15:09:46;;;;;;;4.05;0.90;;;;;;;26.58;34.03;101736.66;5242479;28;20457;-72
2022/07/02 15:12:18;;;;;;;1.60;1.00;;;;;;;26.59;33.55;101727.75;5241567;28;20034;-73
2022/07/02 15:17:39;;;;;;;1.38;0.80;;;;;;;26.62;32.69;101729.00;5240713;28;20052;-73
2022/07/02 15:20:11;;;;;;;1.70;1.10;;;;;;;26.67;33.03;101728.69;5241333;28;20021;-72
2022/07/02 15:22:48;;;;;;;3.75;1.60;;;;;;;26.68;32.91;101731.13;5240718;28;20026;-71
2022/07/02 15:25:21;;;;;;;2.45;0.90;;;;;;;26.47;33.24;101719.34;5240384;28;20090;-71
2022/07/02 15:27:57;;;;;;;3.72;2.45;;;;;;;26.43;33.44;101724.13;5238990;28;20109;-70
2022/07/02 15:30:31;;;;;;;2.47;1.38;;;;;;;26.42;33.54;101716.81;5220745;28;20478;-69
2022/07/02 15:33:04;;;;;;;2.17;1.00;;;;;;;26.16;33.54;101717.56;5229279;28;20112;-68
2022/07/02 15:35:39;;;;;;;3.35;1.35;;;;;;;26.15;34.55;101721.56;5241280;28;20280;-71
2022/07/02 15:38:11;;;;;;;3.03;0.93;;;;;;;26.01;34.06;101719.28;5247361;28;20025;-70
2022/07/02 15:40:43;;;;;;;4.38;1.30;;;;;;;26.22;34.68;101725.38;5241431;28;20114;-71
2022/07/02 15:43:15;;;;;;;2.20;1.17;;;;;;;26.21;34.13;101718.06;5240942;28;20477;-71
2022/07/02 15:45:47;;;;;;;5.22;1.15;;;;;;;26.05;33.93;101707.97;5240159;28;20032;-71
2022/07/02 15:48:19;;;;;;;3.85;1.00;;;;;;;26.08;33.69;101708.06;5230691;28;20468;-71
2022/07/02 15:51:01;;;;;;;3.20;0.98;;;;;;;25.95;34.57;101710.25;5238917;28;20461;-74
2022/07/02 15:53:32;;;;;;;3.53;1.10;;;;;;;25.92;34.70;101710.16;5239766;28;20029;-72
2022/07/02 15:56:06;;;;;;;3.03;0.82;;;;;;;25.87;34.58;101696.25;5242773;28;20017;-75
2022/07/02 15:58:49;;;;;;;2.53;0.90;;;;;;;25.97;34.50;101701.31;5260271;28;20045;-73
2022/07/02 16:01:21;;;;;;;5.25;1.05;;;;;;;26.00;34.31;101701.41;5247340;28;20430;-73
2022/07/02 16:03:58;;;;;;;2.42;0.88;;;;;;;26.09;34.79;101703.19;5236715;28;20120;-72
2022/07/02 16:06:31;;;;;;;2.67;1.00;;;;;;;26.07;33.69;101706.41;5252292;28;20025;-70
2022/07/02 16:09:03;;;;;;;2.33;0.90;;;;;;;26.05;34.43;101699.44;5250533;28;20436;-72
2022/07/02 16:11:35;;;;;;;2.17;0.80;;;;;;;25.65;34.73;101700.63;5259359;28;20407;-72
2022/07/02 16:14:07;;;;;;;2.10;0.80;;;;;;;25.83;35.08;101693.31;5228716;28;20030;-72
2022/07/02 16:16:40;;;;;;;2.65;0.75;;;;;;;25.58;34.50;101685.06;5259773;28;20029;-71
2022/07/02 16:19:12;;;;;;;3.58;1.00;;;;;;;25.52;35.32;101685.75;5243790;28;20039;-72
2022/07/02 16:21:44;;;;;;;1.85;1.40;;;;;;;25.48;35.35;101679.97;5243313;28;20033;-73
2022/07/02 16:24:18;;;;;;;2.85;0.88;;;;;;;25.35;35.40;101678.47;5243361;28;20021;-72
2022/07/02 16:26:51;;;;;;;3.03;1.20;;;;;;;25.28;35.45;101672.63;5244100;28;20021;-71
2022/07/02 16:29:24;;;;;;;2.63;0.68;;;;;;;25.32;35.68;101674.34;5244723;28;20033;-71
2022/07/02 16:32:02;;;;;;;4.10;1.08;;;;;;;25.60;35.60;101673.34;5244716;28;20223;-71
2022/07/02 16:34:49;;;;;;;2.10;1.02;;;;;;;25.50;35.73;101674.75;5243706;28;20022;-71
2022/07/02 16:37:26;;;;;;;3.35;1.10;;;;;;;25.55;36.02;101673.63;5244754;28;20033;-73
2022/07/02 16:40:02;;;;;;;2.78;0.80;;;;;;;25.53;36.28;101674.00;5228303;28;20025;-73
2022/07/02 16:42:36;;;;;;;1.60;0.88;;;;;;;25.31;36.22;101669.03;5237170;28;20029;-71
2022/07/02 16:45:12;;;;;;;0.90;0.80;;;;;;;25.31;36.25;101669.03;5242205;28;20376;-70
2022/07/02 16:47:48;;;;;;;4.13;1.30;;;;;;;25.17;36.62;101659.00;5243222;28;20037;-70
2022/07/02 16:50:20;;;;;;;1.52;0.85;;;;;;;25.04;36.71;101660.28;5244642;28;20380;-72
2022/07/02 16:52:59;;;;;;;5.28;0.85;;;;;;;24.97;36.92;101664.97;5265322;28;20036;-71
2022/07/02 16:55:31;;;;;;;4.85;1.40;;;;;;;24.94;36.90;101663.69;5240435;28;20025;-71
2022/07/02 16:58:03;;;;;;;1.67;1.00;;;;;;;24.81;36.74;101662.97;5225649;28;20054;-71
2022/07/02 17:00:34;;;;;;;3.50;1.08;;;;;;;24.80;37.16;101664.19;5247333;28;20372;-71
2022/07/02 17:03:07;;;;;;;1.85;0.98;;;;;;;24.69;36.85;101663.91;5236855;28;20037;-71
2022/07/02 17:05:38;;;;;;;2.25;0.90;;;;;;;24.82;36.85;101664.63;5249931;28;20042;-71
2022/07/02 17:08:10;;;;;;;3.70;0.90;;;;;;;24.81;37.10;101662.16;5253861;28;20021;-72
2022/07/02 17:13:31;;;;;;;2.05;1.00;;;;;;;24.69;37.92;101657.41;5238720;28;20121;-72
2022/07/02 17:16:03;;;;;;;1.15;1.00;;;;;;;24.73;38.16;101656.31;5238265;28;20034;-72
2022/07/02 17:18:34;;;;;;;1.55;1.00;;;;;;;24.55;38.89;101655.06;5243571;28;20040;-71
2022/07/02 17:21:05;;;;;;;2.50;1.02;;;;;;;24.53;38.90;101657.41;5243547;28;20105;-73
2022/07/02 17:23:37;;;;;;;2.50;1.20;;;;;;;24.52;39.17;101655.78;5243316;28;20021;-73
2022/07/02 17:26:08;;;;;;;3.28;1.25;;;;;;;24.59;39.23;101660.81;5241546;28;20060;-70
2022/07/02 17:28:41;;;;;;;3.08;1.40;;;;;;;24.60;39.04;101660.44;5233070;28;20433;-72
